createdAt,value
2023-04-04T00:00:06.027Z,0.00
2023-04-04T00:01:06.015Z,0.00
2023-04-04T00:02:06.036Z,0.00
2023-04-04T05:08:41.484Z,16.88
2023-04-04T05:09:41.357Z,16.88
2023-04-04T05:10:41.843Z,16.88
2023-04-04T05:11:41.424Z,22.50
2023-04-04T05:12:41.360Z,22.50
2023-04-04T05:13:41.329Z,22.50
2023-04-04T05:14:41.316Z,28.12
2023-04-04T05:15:41.366Z,28.12
2023-04-04T05:16:41.333Z,28.12
2023-04-04T05:17:41.336Z,33.75
2023-04-04T05:18:41.264Z,33.75
2023-04-04T05:19:41.334Z,33.75
2023-04-04T05:20:41.612Z,33.75
2023-04-04T05:21:41.325Z,39.38
2023-04-04T05:22:41.237Z,39.38
2023-04-04T05:23:41.232Z,39.38
2023-04-04T05:24:41.201Z,45.00
2023-04-04T05:25:41.205Z,45.00
2023-04-04T05:26:41.191Z,45.00
2023-04-04T05:27:41.182Z,50.62
2023-04-04T05:28:41.165Z,50.62
2023-04-04T05:29:41.154Z,56.25
2023-04-04T05:30:41.491Z,56.25
2023-04-04T05:31:41.257Z,56.25
2023-04-04T05:32:41.206Z,61.88
2023-04-04T05:33:41.109Z,61.88
2023-04-04T05:34:41.112Z,67.50
2023-04-04T05:35:41.232Z,73.12
2023-04-04T05:36:41.112Z,73.12
2023-04-04T05:37:41.080Z,78.75
2023-04-04T05:38:41.071Z,78.75
2023-04-04T05:39:41.054Z,78.75
2023-04-04T05:40:41.403Z,84.38
2023-04-04T05:41:41.042Z,84.38
2023-04-04T05:42:41.021Z,90.00
2023-04-04T05:43:41.048Z,90.00
2023-04-04T05:44:41.038Z,90.00
2023-04-04T05:45:41.967Z,95.62
2023-04-04T05:46:41.002Z,95.62
2023-04-04T05:47:40.972Z,101.25
2023-04-04T05:48:40.974Z,101.25
2023-04-04T05:49:41.032Z,101.25
2023-04-04T05:50:41.247Z,106.88
2023-04-04T05:51:40.934Z,106.88
2023-04-04T05:52:40.932Z,106.88
2023-04-04T05:53:40.919Z,112.50
2023-04-04T05:54:40.928Z,112.50
2023-04-04T05:55:40.902Z,118.12
2023-04-04T05:56:40.883Z,118.12
2023-04-04T05:57:40.874Z,123.75
2023-04-04T05:58:40.877Z,123.75
2023-04-04T05:59:40.952Z,129.38
2023-04-04T06:00:41.132Z,129.38
2023-04-04T06:01:40.831Z,129.38
2023-04-04T06:02:40.902Z,135.00
2023-04-04T06:03:40.855Z,135.00
2023-04-04T06:04:40.808Z,135.00
2023-04-04T06:05:40.928Z,135.00
2023-04-04T06:06:40.768Z,140.62
2023-04-04T06:07:40.810Z,140.62
2023-04-04T06:08:52.898Z,140.62
2023-04-04T06:09:41.775Z,146.25
2023-04-04T06:10:41.116Z,146.25
2023-04-04T06:11:40.794Z,146.25
2023-04-04T06:12:40.747Z,151.88
2023-04-04T06:13:40.692Z,151.88
2023-04-04T06:14:40.685Z,157.50
2023-04-04T06:15:40.683Z,151.88
2023-04-04T06:16:40.720Z,157.50
2023-04-04T06:17:40.721Z,163.12
2023-04-04T06:18:40.653Z,168.75
2023-04-04T06:19:40.645Z,168.75
2023-04-04T06:20:40.887Z,241.88
2023-04-04T06:21:40.609Z,427.50
2023-04-04T06:22:40.633Z,573.75
2023-04-04T06:23:40.603Z,585.00
2023-04-04T06:24:40.579Z,579.38
2023-04-04T06:25:40.582Z,607.50
2023-04-04T06:26:40.583Z,607.50
2023-04-04T06:27:40.552Z,551.25
2023-04-04T06:28:40.546Z,618.75
2023-04-04T06:29:40.545Z,703.12
2023-04-04T06:30:40.778Z,714.38
2023-04-04T06:31:40.544Z,731.25
2023-04-04T06:32:40.570Z,753.75
2023-04-04T06:33:40.515Z,776.25
2023-04-04T06:34:40.546Z,770.62
2023-04-04T06:35:40.492Z,725.62
2023-04-04T06:36:40.457Z,675.00
2023-04-04T06:37:40.440Z,686.25
2023-04-04T06:38:40.442Z,686.25
2023-04-04T06:39:40.546Z,714.38
2023-04-04T06:40:40.652Z,731.25
2023-04-04T06:41:40.401Z,753.75
2023-04-04T06:42:40.433Z,826.88
2023-04-04T06:43:40.381Z,838.12
2023-04-04T06:44:40.455Z,826.88
2023-04-04T06:45:40.378Z,793.12
2023-04-04T06:46:40.448Z,736.88
2023-04-04T06:47:40.390Z,849.38
2023-04-04T06:48:40.331Z,905.62
2023-04-04T06:49:40.339Z,905.62
2023-04-04T06:50:40.493Z,916.88
2023-04-04T06:51:40.302Z,916.88
2023-04-04T06:52:40.304Z,1001.25
2023-04-04T06:53:40.263Z,1046.25
2023-04-04T06:54:40.379Z,1057.50
2023-04-04T06:55:40.262Z,1108.12
2023-04-04T06:56:40.251Z,1102.50
2023-04-04T06:57:40.233Z,1096.88
2023-04-04T06:58:40.230Z,1130.62
2023-04-04T06:59:40.259Z,1170.00
2023-04-04T07:00:40.548Z,1220.62
2023-04-04T07:01:40.184Z,1231.88
2023-04-04T07:02:40.385Z,1215.00
2023-04-04T07:03:40.156Z,1220.62
2023-04-04T07:04:40.884Z,1136.25
2023-04-04T07:05:40.172Z,1023.75
2023-04-04T07:06:40.145Z,945.00
2023-04-04T07:07:40.124Z,916.88
2023-04-04T07:08:40.144Z,686.25
2023-04-04T07:09:40.414Z,405.00
2023-04-04T07:10:41.238Z,354.38
2023-04-04T07:11:40.096Z,444.38
2023-04-04T07:12:40.083Z,399.38
2023-04-04T07:13:40.852Z,596.25
2023-04-04T07:14:40.048Z,945.00
2023-04-04T07:15:40.086Z,1051.88
2023-04-04T07:16:40.093Z,489.38
2023-04-04T07:17:40.137Z,641.25
2023-04-04T07:18:40.014Z,922.50
2023-04-04T07:19:40.007Z,1417.50
2023-04-04T07:20:40.263Z,1389.38
2023-04-04T07:21:39.991Z,703.12
2023-04-04T07:22:39.979Z,416.25
2023-04-04T07:23:39.961Z,658.12
2023-04-04T07:24:39.963Z,590.62
2023-04-04T07:25:39.962Z,500.62
2023-04-04T07:26:39.956Z,506.25
2023-04-04T07:27:40.037Z,855.00
2023-04-04T07:28:39.955Z,1485.00
2023-04-04T07:29:39.897Z,635.62
2023-04-04T07:30:40.178Z,1586.25
2023-04-04T07:31:39.900Z,1147.50
2023-04-04T07:32:39.870Z,1203.75
2023-04-04T07:33:39.915Z,748.12
2023-04-04T07:34:39.843Z,675.00
2023-04-04T07:35:39.860Z,753.75
2023-04-04T07:36:39.887Z,646.88
2023-04-04T07:37:39.816Z,1355.62
2023-04-04T07:38:39.838Z,1591.88
2023-04-04T07:39:39.804Z,1665.00
2023-04-04T07:40:40.015Z,1800.00
2023-04-04T07:41:39.806Z,1884.38
2023-04-04T07:42:39.754Z,1839.38
2023-04-04T07:43:39.743Z,1940.62
2023-04-04T07:44:39.721Z,1828.12
2023-04-04T07:45:39.732Z,1845.00
2023-04-04T07:46:39.772Z,1873.12
2023-04-04T07:47:39.732Z,1704.38
2023-04-04T07:48:39.675Z,1535.62
2023-04-04T07:49:39.665Z,1501.88
2023-04-04T07:50:39.995Z,1305.00
2023-04-04T07:51:39.652Z,1383.75
2023-04-04T07:52:39.634Z,1473.75
2023-04-04T07:53:39.615Z,1636.88
2023-04-04T07:54:39.643Z,1738.12
2023-04-04T07:55:39.618Z,1850.62
2023-04-04T07:56:39.615Z,1895.62
2023-04-04T07:57:39.610Z,1991.25
2023-04-04T07:58:39.579Z,2053.12
2023-04-04T07:59:39.559Z,2064.38
2023-04-04T08:00:39.804Z,2058.75
2023-04-04T08:01:39.584Z,2019.38
2023-04-04T08:02:39.694Z,2025.00
2023-04-04T08:03:39.610Z,2036.25
2023-04-04T08:04:39.531Z,2041.88
2023-04-04T08:05:39.505Z,2126.25
2023-04-04T08:06:39.510Z,2154.38
2023-04-04T08:07:39.468Z,2115.00
2023-04-04T08:08:39.456Z,2058.75
2023-04-04T08:09:39.447Z,2041.88
2023-04-04T08:10:39.642Z,2047.50
2023-04-04T08:11:39.529Z,2047.50
2023-04-04T08:12:39.424Z,2092.50
2023-04-04T08:13:39.416Z,2160.00
2023-04-04T08:14:39.427Z,2210.62
2023-04-04T08:15:39.423Z,2221.88
2023-04-04T08:16:39.393Z,2261.25
2023-04-04T08:17:39.377Z,2216.25
2023-04-04T08:18:39.362Z,2193.75
2023-04-04T08:19:39.383Z,2250.00
2023-04-04T08:20:39.496Z,2300.62
2023-04-04T08:21:39.360Z,2407.50
2023-04-04T08:22:39.317Z,2508.75
2023-04-04T08:23:39.313Z,2368.12
2023-04-04T08:24:39.289Z,2255.62
2023-04-04T08:25:39.362Z,2255.62
2023-04-04T08:26:39.278Z,2278.12
2023-04-04T08:27:39.259Z,2379.38
2023-04-04T08:28:39.267Z,2565.00
2023-04-04T08:29:39.242Z,2711.25
2023-04-04T08:30:39.398Z,2812.50
2023-04-04T08:31:39.257Z,2812.50
2023-04-04T08:32:39.267Z,2677.50
2023-04-04T08:33:47.176Z,2761.88
2023-04-04T08:34:40.339Z,2745.00
2023-04-04T08:35:39.266Z,2643.75
2023-04-04T08:36:39.155Z,2750.62
2023-04-04T08:37:39.144Z,2638.12
2023-04-04T08:38:39.132Z,2469.38
2023-04-04T08:39:39.136Z,2458.12
2023-04-04T08:40:39.301Z,2671.88
2023-04-04T08:41:39.111Z,2671.88
2023-04-04T08:42:39.102Z,2694.38
2023-04-04T08:43:39.082Z,2857.50
2023-04-04T08:44:39.078Z,2790.00
2023-04-04T08:45:39.074Z,2784.38
2023-04-04T08:46:39.114Z,3020.62
2023-04-04T08:47:39.067Z,3217.50
2023-04-04T08:48:39.069Z,3133.12
2023-04-04T08:49:39.041Z,3054.38
2023-04-04T08:50:39.270Z,2941.88
2023-04-04T08:51:39.056Z,3026.25
2023-04-04T08:52:38.988Z,3105.00
2023-04-04T08:53:39.014Z,2891.25
2023-04-04T08:54:38.971Z,2733.75
2023-04-04T08:55:38.961Z,2688.75
2023-04-04T08:56:38.963Z,2615.62
2023-04-04T08:57:38.952Z,2604.38
2023-04-04T08:58:39.014Z,2773.12
2023-04-04T08:59:39.066Z,2896.88
2023-04-04T09:00:39.185Z,2801.25
2023-04-04T09:01:39.031Z,2626.88
2023-04-04T09:02:38.956Z,2677.50
2023-04-04T09:03:38.871Z,2902.50
2023-04-04T09:04:38.923Z,2958.75
2023-04-04T09:05:38.888Z,2970.00
2023-04-04T09:06:38.853Z,2711.25
2023-04-04T09:07:39.846Z,2525.62
2023-04-04T09:08:38.836Z,2536.88
2023-04-04T09:09:38.832Z,2581.88
2023-04-04T09:10:38.945Z,2581.88
2023-04-04T09:11:38.824Z,2643.75
2023-04-04T09:12:38.781Z,2846.25
2023-04-04T09:13:40.296Z,3026.25
2023-04-04T09:14:38.764Z,2823.75
2023-04-04T09:15:38.752Z,2632.50
2023-04-04T09:16:38.803Z,2655.00
2023-04-04T09:17:38.775Z,2705.62
2023-04-04T09:18:38.781Z,2829.38
2023-04-04T09:19:38.798Z,2812.50
2023-04-04T09:20:38.997Z,2902.50
2023-04-04T09:21:38.689Z,3268.12
2023-04-04T09:22:38.696Z,3217.50
2023-04-04T09:23:38.660Z,2947.50
2023-04-04T09:24:38.662Z,2750.62
2023-04-04T09:25:38.677Z,2649.38
2023-04-04T09:26:38.806Z,2626.88
2023-04-04T09:27:38.623Z,2593.12
2023-04-04T09:28:38.625Z,2604.38
2023-04-04T09:29:38.608Z,2598.75
2023-04-04T09:30:38.907Z,2615.62
2023-04-04T09:31:38.754Z,2660.62
2023-04-04T09:32:38.696Z,2930.62
2023-04-04T09:33:38.562Z,3363.75
2023-04-04T09:34:38.568Z,3341.25
2023-04-04T09:35:38.566Z,3015.00
2023-04-04T09:36:38.589Z,3076.88
2023-04-04T09:37:38.575Z,3178.12
2023-04-04T09:38:38.524Z,3161.25
2023-04-04T09:39:38.489Z,3110.62
2023-04-04T09:40:38.725Z,3071.25
2023-04-04T09:41:38.493Z,3110.62
2023-04-04T09:42:38.506Z,3268.12
2023-04-04T09:43:38.459Z,3285.00
2023-04-04T09:44:38.440Z,3290.62
2023-04-04T09:45:38.431Z,3296.25
2023-04-04T09:46:38.575Z,3121.88
2023-04-04T09:47:38.470Z,3048.75
2023-04-04T09:48:38.397Z,2947.50
2023-04-04T09:49:38.376Z,2925.00
2023-04-04T09:50:38.634Z,2835.00
2023-04-04T09:51:38.358Z,2790.00
2023-04-04T09:52:38.378Z,2835.00
2023-04-04T09:53:38.361Z,2919.38
2023-04-04T09:54:47.838Z,2970.00
2023-04-04T09:55:39.447Z,2936.25
2023-04-04T09:56:38.351Z,2992.50
2023-04-04T09:57:38.293Z,3054.38
2023-04-04T09:58:42.328Z,3200.62
2023-04-04T09:59:39.321Z,3408.75
2023-04-04T10:00:38.575Z,3521.25
2023-04-04T10:01:38.330Z,3684.38
2023-04-04T10:02:38.271Z,3425.62
2023-04-04T10:03:38.308Z,3099.38
2023-04-04T10:04:38.316Z,3150.00
2023-04-04T10:05:38.217Z,3195.00
2023-04-04T10:06:38.235Z,3082.50
2023-04-04T10:07:38.195Z,3043.12
2023-04-04T10:08:38.235Z,3105.00
2023-04-04T10:09:38.176Z,3189.38
2023-04-04T10:10:38.430Z,3363.75
2023-04-04T10:11:38.174Z,3549.38
2023-04-04T10:12:38.161Z,3313.12
2023-04-04T10:13:38.131Z,2958.75
2023-04-04T10:14:38.132Z,2835.00
2023-04-04T10:15:38.156Z,2908.12
2023-04-04T10:16:38.701Z,2925.00
2023-04-04T10:17:38.175Z,2936.25
2023-04-04T10:18:38.128Z,2992.50
2023-04-04T10:19:38.085Z,3031.88
2023-04-04T10:20:38.244Z,3003.75
2023-04-04T10:21:38.069Z,2953.12
2023-04-04T10:22:38.054Z,2891.25
2023-04-04T10:23:38.082Z,2801.25
2023-04-04T10:24:38.022Z,2728.12
2023-04-04T10:25:38.010Z,2683.12
2023-04-04T10:26:38.030Z,2745.00
2023-04-04T10:27:38.057Z,2857.50
2023-04-04T10:28:37.979Z,3026.25
2023-04-04T10:29:37.975Z,3285.00
2023-04-04T10:30:38.314Z,3324.38
2023-04-04T10:31:37.984Z,3054.38
2023-04-04T10:32:37.991Z,2913.75
2023-04-04T10:33:37.934Z,3060.00
2023-04-04T10:34:37.929Z,3161.25
2023-04-04T10:35:37.938Z,3105.00
2023-04-04T10:36:37.904Z,3060.00
2023-04-04T10:37:37.944Z,3144.38
2023-04-04T10:38:37.937Z,3386.25
2023-04-04T10:39:37.883Z,3431.25
2023-04-04T10:40:38.189Z,3189.38
2023-04-04T10:41:37.888Z,3150.00
2023-04-04T10:42:37.844Z,3076.88
2023-04-04T10:43:37.820Z,3262.50
2023-04-04T10:44:37.850Z,3515.62
2023-04-04T10:45:37.845Z,3757.50
2023-04-04T10:46:37.898Z,3903.75
2023-04-04T10:47:37.845Z,3965.62
2023-04-04T10:48:37.902Z,4055.62
2023-04-04T10:49:37.762Z,4387.50
2023-04-04T10:50:37.754Z,4606.88
2023-04-04T10:51:48.868Z,4595.62
2023-04-04T10:52:38.767Z,4674.38
2023-04-04T10:53:37.713Z,4753.12
2023-04-04T10:54:37.731Z,4573.12
2023-04-04T10:55:38.115Z,4460.62
2023-04-04T10:56:37.689Z,4336.88
2023-04-04T10:57:37.732Z,4111.88
2023-04-04T10:58:37.685Z,4156.88
2023-04-04T10:59:37.776Z,4342.50
2023-04-04T11:00:37.721Z,4140.00
2023-04-04T11:01:37.650Z,4263.75
2023-04-04T11:02:37.717Z,4348.12
2023-04-04T11:03:37.637Z,4320.00
2023-04-04T11:04:37.979Z,4545.00
2023-04-04T11:05:37.733Z,4426.88
2023-04-04T11:06:37.645Z,4055.62
2023-04-04T11:07:37.642Z,3796.88
2023-04-04T11:08:37.653Z,3931.88
2023-04-04T11:09:37.562Z,3971.25
2023-04-04T11:10:37.677Z,3802.50
2023-04-04T11:11:38.195Z,3712.50
2023-04-04T11:12:37.556Z,3870.00
2023-04-04T11:13:37.586Z,3999.38
2023-04-04T11:14:37.496Z,3892.50
2023-04-04T11:15:37.637Z,3960.00
2023-04-04T11:16:37.533Z,3982.50
2023-04-04T11:17:37.554Z,3858.75
2023-04-04T11:18:37.827Z,4348.12
2023-04-04T11:19:37.484Z,4573.12
2023-04-04T11:20:37.523Z,4595.62
2023-04-04T11:21:37.452Z,4595.62
2023-04-04T11:22:37.425Z,4117.50
2023-04-04T11:23:37.539Z,3881.25
2023-04-04T11:24:37.405Z,3948.75
2023-04-04T11:25:37.750Z,4151.25
2023-04-04T11:26:37.457Z,4218.75
2023-04-04T11:27:37.401Z,4162.50
2023-04-04T11:28:37.417Z,4128.75
2023-04-04T11:29:37.374Z,4235.62
2023-04-04T11:30:37.343Z,4179.38
2023-04-04T11:31:37.448Z,3903.75
2023-04-04T11:32:37.352Z,4010.62
2023-04-04T11:33:37.394Z,4325.62
2023-04-04T11:34:37.336Z,4702.50
2023-04-04T11:35:37.480Z,4640.62
2023-04-04T11:36:37.337Z,4741.88
2023-04-04T11:37:37.571Z,4876.88
2023-04-04T11:38:37.246Z,4781.25
2023-04-04T11:39:37.240Z,4595.62
2023-04-04T11:40:37.386Z,4618.12
2023-04-04T11:41:37.260Z,4308.75
2023-04-04T11:42:37.218Z,4387.50
2023-04-04T11:43:37.204Z,4696.88
2023-04-04T11:44:37.224Z,4421.25
2023-04-04T11:45:37.354Z,4393.12
2023-04-04T11:46:37.256Z,4398.75
2023-04-04T11:47:37.260Z,4522.50
2023-04-04T11:48:37.154Z,4545.00
2023-04-04T11:49:37.150Z,4573.12
2023-04-04T11:50:37.156Z,4500.00
2023-04-04T11:51:37.115Z,4387.50
2023-04-04T11:52:37.122Z,4213.12
2023-04-04T11:53:37.143Z,4657.50
2023-04-04T11:54:37.101Z,4719.38
2023-04-04T11:55:37.235Z,4668.75
2023-04-04T11:56:37.108Z,4460.62
2023-04-04T11:57:37.365Z,4078.12
2023-04-04T11:58:37.085Z,4050.00
2023-04-04T11:59:37.116Z,4095.00
2023-04-04T12:00:37.398Z,4303.12
2023-04-04T12:01:37.271Z,4179.38
2023-04-04T12:02:37.340Z,4089.38
2023-04-04T12:03:37.331Z,4190.62
2023-04-04T12:04:38.266Z,4455.00
2023-04-04T12:05:37.401Z,4522.50
2023-04-04T12:06:37.004Z,4455.00
2023-04-04T12:07:37.000Z,4567.50
2023-04-04T12:08:37.003Z,4325.62
2023-04-04T12:09:36.937Z,4376.25
2023-04-04T12:10:36.944Z,4353.75
2023-04-04T12:11:36.939Z,4336.88
2023-04-04T12:12:36.942Z,4387.50
2023-04-04T12:13:36.947Z,4477.50
2023-04-04T12:14:36.940Z,4443.75
2023-04-04T12:15:37.270Z,4629.38
2023-04-04T12:16:36.978Z,4606.88
2023-04-04T12:17:36.986Z,4196.25
2023-04-04T12:18:37.004Z,4449.38
2023-04-04T12:19:38.312Z,4573.12
2023-04-04T12:20:36.974Z,4252.50
2023-04-04T12:21:36.915Z,4308.75
2023-04-04T12:22:36.853Z,4258.12
2023-04-04T12:23:36.891Z,3988.12
2023-04-04T12:24:36.799Z,4179.38
2023-04-04T12:25:36.886Z,4190.62
2023-04-04T12:26:36.806Z,4691.25
2023-04-04T12:27:36.895Z,4590.00
2023-04-04T12:28:36.776Z,4410.00
2023-04-04T12:29:36.732Z,4348.12
2023-04-04T12:30:36.725Z,3892.50
2023-04-04T12:31:36.853Z,3960.00
2023-04-04T12:32:36.784Z,4117.50
2023-04-04T12:33:36.767Z,4398.75
2023-04-04T12:34:36.732Z,4320.00
2023-04-04T12:35:36.801Z,4005.00
2023-04-04T12:36:36.677Z,3774.38
2023-04-04T12:37:36.668Z,3735.00
2023-04-04T12:38:36.679Z,3858.75
2023-04-04T12:39:36.655Z,3841.88
2023-04-04T12:40:36.682Z,3678.75
2023-04-04T12:41:36.647Z,3526.88
2023-04-04T12:42:36.600Z,3594.38
2023-04-04T12:43:36.603Z,3706.88
2023-04-04T12:44:36.583Z,3937.50
2023-04-04T12:45:36.758Z,4016.25
2023-04-04T12:46:36.592Z,3976.88
2023-04-04T12:47:36.608Z,3909.38
2023-04-04T12:48:36.546Z,4038.75
2023-04-04T12:49:36.534Z,4033.12
2023-04-04T12:50:36.573Z,3740.62
2023-04-04T12:51:36.526Z,3645.00
2023-04-04T12:52:36.497Z,3673.12
2023-04-04T12:53:36.528Z,3701.25
2023-04-04T12:54:36.469Z,3718.12
2023-04-04T12:55:36.481Z,3886.88
2023-04-04T12:56:36.453Z,3926.25
2023-04-04T12:57:36.452Z,3785.62
2023-04-04T12:58:37.639Z,3802.50
2023-04-04T12:59:36.508Z,3853.12
2023-04-04T13:00:36.409Z,3628.12
2023-04-04T13:01:36.401Z,3768.75
2023-04-04T13:02:36.483Z,3819.38
2023-04-04T13:03:36.428Z,3639.38
2023-04-04T13:04:36.407Z,3802.50
2023-04-04T13:05:36.360Z,3791.25
2023-04-04T13:06:36.383Z,3403.12
2023-04-04T13:07:36.348Z,3346.88
2023-04-04T13:08:36.383Z,3543.75
2023-04-04T13:09:37.056Z,3892.50
2023-04-04T13:10:36.303Z,3656.25
2023-04-04T13:11:36.295Z,3341.25
2023-04-04T13:12:36.306Z,3504.38
2023-04-04T13:13:36.366Z,3802.50
2023-04-04T13:14:36.297Z,3915.00
2023-04-04T13:15:36.275Z,3504.38
2023-04-04T13:16:36.271Z,3639.38
2023-04-04T13:17:36.311Z,3903.75
2023-04-04T13:18:36.238Z,3661.88
2023-04-04T13:19:36.251Z,3690.00
2023-04-04T13:20:36.281Z,3645.00
2023-04-04T13:21:36.228Z,3510.00
2023-04-04T13:22:36.190Z,3380.62
2023-04-04T13:23:36.289Z,3285.00
2023-04-04T13:24:36.210Z,3425.62
2023-04-04T13:25:36.183Z,3493.12
2023-04-04T13:26:36.143Z,3493.12
2023-04-04T13:27:36.167Z,3611.25
2023-04-04T13:28:36.138Z,3459.38
2023-04-04T13:29:36.245Z,3425.62
2023-04-04T13:30:36.153Z,3397.50
2023-04-04T13:31:36.144Z,3211.88
2023-04-04T13:32:36.131Z,3166.88
2023-04-04T13:33:36.107Z,3408.75
2023-04-04T13:34:36.256Z,3352.50
2023-04-04T13:35:36.059Z,3296.25
2023-04-04T13:36:36.158Z,3324.38
2023-04-04T13:37:36.072Z,3296.25
2023-04-04T13:38:36.064Z,3245.62
2023-04-04T13:39:36.123Z,3065.62
2023-04-04T13:40:36.042Z,2986.88
2023-04-04T13:41:36.028Z,3031.88
2023-04-04T13:42:36.124Z,3150.00
2023-04-04T13:43:35.992Z,3358.12
2023-04-04T13:44:36.055Z,3200.62
2023-04-04T13:45:35.963Z,2998.12
2023-04-04T13:46:36.017Z,3043.12
2023-04-04T13:47:36.019Z,2941.88
2023-04-04T13:48:35.981Z,2919.38
2023-04-04T13:49:36.003Z,3093.75
2023-04-04T13:50:35.930Z,3088.12
2023-04-04T13:51:35.920Z,3076.88
2023-04-04T13:52:35.922Z,2981.25
2023-04-04T13:53:35.897Z,2908.12
2023-04-04T13:54:35.885Z,2891.25
2023-04-04T13:55:35.873Z,2958.75
2023-04-04T13:56:35.868Z,2761.88
2023-04-04T13:57:35.894Z,2666.25
2023-04-04T13:58:35.892Z,2851.88
2023-04-04T13:59:35.886Z,2840.62
2023-04-04T14:00:35.844Z,2739.38
2023-04-04T14:01:35.852Z,2851.88
2023-04-04T14:02:35.835Z,2711.25
2023-04-04T14:03:35.801Z,2795.62
2023-04-04T14:04:35.838Z,2705.62
2023-04-04T14:05:35.757Z,2711.25
2023-04-04T14:06:35.750Z,2947.50
2023-04-04T14:07:35.725Z,2981.25
2023-04-04T14:08:35.728Z,2941.88
2023-04-04T14:09:35.704Z,2874.38
2023-04-04T14:10:35.709Z,2981.25
2023-04-04T14:11:35.727Z,2936.25
2023-04-04T14:12:35.687Z,2857.50
2023-04-04T14:13:35.697Z,2559.38
2023-04-04T14:14:37.732Z,2458.12
2023-04-04T14:15:35.788Z,2446.88
2023-04-04T14:16:35.733Z,2683.12
2023-04-04T14:17:35.713Z,2430.00
2023-04-04T14:18:35.665Z,2413.12
2023-04-04T14:19:35.632Z,2266.88
2023-04-04T14:20:35.614Z,2407.50
2023-04-04T14:21:35.593Z,2430.00
2023-04-04T14:22:35.586Z,2368.12
2023-04-04T14:23:35.588Z,2413.12
2023-04-04T14:24:35.544Z,2328.75
2023-04-04T14:25:35.544Z,2261.25
2023-04-04T14:26:35.540Z,2250.00
2023-04-04T14:27:35.516Z,2131.88
2023-04-04T14:28:35.518Z,2008.12
2023-04-04T14:29:35.529Z,1884.38
2023-04-04T14:30:35.488Z,1631.25
2023-04-04T14:31:35.611Z,1473.75
2023-04-04T14:32:35.490Z,1535.62
2023-04-04T14:33:35.469Z,1743.75
2023-04-04T14:34:35.444Z,1811.25
2023-04-04T14:35:35.434Z,1648.12
2023-04-04T14:36:35.432Z,1333.12
2023-04-04T14:37:35.411Z,1226.25
2023-04-04T14:38:35.413Z,1001.25
2023-04-04T14:39:35.392Z,1136.25
2023-04-04T14:40:35.394Z,1153.12
2023-04-04T14:41:35.367Z,1389.38
2023-04-04T14:42:35.361Z,1445.62
2023-04-04T14:43:35.355Z,1113.75
2023-04-04T14:44:35.428Z,1428.75
2023-04-04T14:45:35.368Z,1501.88
2023-04-04T14:46:35.339Z,1147.50
2023-04-04T14:47:35.362Z,1282.50
2023-04-04T14:48:35.310Z,1220.62
2023-04-04T14:49:35.287Z,877.50
2023-04-04T14:50:35.267Z,928.12
2023-04-04T14:51:35.257Z,900.00
2023-04-04T14:52:35.243Z,1057.50
2023-04-04T14:53:35.250Z,1260.00
2023-04-04T14:54:35.216Z,1209.38
2023-04-04T14:55:35.224Z,1411.88
2023-04-04T14:56:35.211Z,1057.50
2023-04-04T14:57:39.233Z,815.62
2023-04-04T14:58:36.197Z,849.38
2023-04-04T14:59:35.200Z,1012.50
2023-04-04T15:00:35.164Z,961.88
2023-04-04T15:01:35.199Z,770.62
2023-04-04T15:02:35.155Z,804.38
2023-04-04T15:03:35.156Z,961.88
2023-04-04T15:04:35.144Z,1001.25
2023-04-04T15:05:35.137Z,1012.50
2023-04-04T15:06:35.168Z,1231.88
2023-04-04T15:07:35.115Z,860.62
2023-04-04T15:08:35.096Z,697.50
2023-04-04T15:09:35.062Z,866.25
2023-04-04T15:10:35.085Z,798.75
2023-04-04T15:11:35.043Z,1260.00
2023-04-04T15:12:35.032Z,1473.75
2023-04-04T15:13:35.047Z,1254.38
2023-04-04T15:14:35.032Z,894.38
2023-04-04T15:15:35.005Z,855.00
2023-04-04T15:16:35.152Z,916.88
2023-04-04T15:17:34.987Z,461.25
2023-04-04T15:18:35.011Z,416.25
2023-04-04T15:19:34.972Z,354.38
2023-04-04T15:20:34.939Z,343.12
2023-04-04T15:21:34.927Z,360.00
2023-04-04T15:22:34.931Z,472.50
2023-04-04T15:23:34.952Z,568.12
2023-04-04T15:24:34.905Z,528.75
2023-04-04T15:25:34.909Z,472.50
2023-04-04T15:26:34.953Z,838.12
2023-04-04T15:27:34.936Z,748.12
2023-04-04T15:28:34.909Z,708.75
2023-04-04T15:29:34.852Z,826.88
2023-04-04T15:30:34.830Z,753.75
2023-04-04T15:31:34.922Z,680.62
2023-04-04T15:32:34.830Z,607.50
2023-04-04T15:33:34.820Z,658.12
2023-04-04T15:34:34.796Z,646.88
2023-04-04T15:35:34.791Z,635.62
2023-04-04T15:36:34.849Z,568.12
2023-04-04T15:37:34.769Z,590.62
2023-04-04T15:38:34.758Z,523.12
2023-04-04T15:39:39.778Z,511.88
2023-04-04T15:40:35.726Z,573.75
2023-04-04T15:41:34.714Z,489.38
2023-04-04T15:42:34.692Z,472.50
2023-04-04T15:43:34.721Z,495.00
2023-04-04T15:44:34.674Z,433.12
2023-04-04T15:45:34.730Z,371.25
2023-04-04T15:46:34.654Z,393.75
2023-04-04T15:47:34.674Z,405.00
2023-04-04T15:48:34.649Z,433.12
2023-04-04T15:49:34.633Z,416.25
2023-04-04T15:50:34.610Z,421.88
2023-04-04T15:51:34.599Z,382.50
2023-04-04T15:52:34.602Z,343.12
2023-04-04T15:53:34.615Z,326.25
2023-04-04T15:54:34.571Z,298.12
2023-04-04T15:55:34.591Z,298.12
2023-04-04T15:56:34.581Z,286.88
2023-04-04T15:57:34.549Z,281.25
2023-04-04T15:58:34.589Z,275.62
2023-04-04T15:59:34.535Z,270.00
2023-04-04T16:00:34.517Z,270.00
2023-04-04T16:01:34.652Z,264.38
2023-04-04T16:02:34.754Z,258.75
2023-04-04T16:03:34.526Z,253.12
2023-04-04T16:04:34.464Z,253.12
2023-04-04T16:05:34.456Z,241.88
2023-04-04T16:06:35.543Z,241.88
2023-04-04T16:07:34.440Z,236.25
2023-04-04T16:08:34.437Z,230.62
2023-04-04T16:09:34.411Z,213.75
2023-04-04T16:10:34.402Z,213.75
2023-04-04T16:11:34.449Z,202.50
2023-04-04T16:12:34.372Z,202.50
2023-04-04T16:13:34.407Z,191.25
2023-04-04T16:14:34.360Z,196.88
2023-04-04T16:15:34.369Z,196.88
2023-04-04T16:16:34.358Z,185.62
2023-04-04T16:17:34.347Z,185.62
2023-04-04T16:18:34.337Z,180.00
2023-04-04T16:19:34.342Z,174.38
2023-04-04T16:20:34.289Z,180.00
2023-04-04T16:21:34.303Z,168.75
2023-04-04T16:22:34.291Z,168.75
2023-04-04T16:23:34.283Z,163.12
2023-04-04T16:24:34.245Z,168.75
2023-04-04T16:25:34.247Z,174.38
2023-04-04T16:26:34.221Z,174.38
2023-04-04T16:27:34.212Z,163.12
2023-04-04T16:28:34.243Z,168.75
2023-04-04T16:29:34.235Z,174.38
2023-04-04T16:30:34.184Z,163.12
2023-04-04T16:31:34.211Z,168.75
2023-04-04T16:32:34.183Z,174.38
2023-04-04T16:33:34.160Z,163.12
2023-04-04T16:34:34.511Z,174.38
2023-04-04T16:35:34.171Z,163.12
2023-04-04T16:36:34.172Z,174.38
2023-04-04T16:37:34.137Z,168.75
2023-04-04T16:38:34.131Z,174.38
2023-04-04T16:39:34.109Z,168.75
2023-04-04T16:40:34.069Z,168.75
2023-04-04T16:41:34.066Z,168.75
2023-04-04T16:42:34.052Z,168.75
2023-04-04T16:43:34.057Z,163.12
2023-04-04T16:44:34.028Z,163.12
2023-04-04T16:45:34.068Z,163.12
2023-04-04T16:46:34.050Z,157.50
2023-04-04T16:47:34.019Z,157.50
2023-04-04T16:48:34.010Z,157.50
2023-04-04T16:49:33.978Z,151.88
2023-04-04T16:50:33.979Z,151.88
2023-04-04T16:51:33.996Z,151.88
2023-04-04T16:52:33.940Z,146.25
2023-04-04T16:53:33.943Z,146.25
2023-04-04T16:54:33.931Z,140.62
2023-04-04T16:55:33.930Z,135.00
2023-04-04T16:56:33.955Z,140.62
2023-04-04T16:57:33.981Z,135.00
2023-04-04T16:58:33.912Z,129.38
2023-04-04T16:59:33.914Z,129.38
2023-04-04T17:00:33.857Z,123.75
2023-04-04T17:01:33.970Z,129.38
2023-04-04T17:02:33.868Z,123.75
2023-04-04T17:03:33.887Z,123.75
2023-04-04T17:04:33.821Z,118.12
2023-04-04T17:05:33.862Z,118.12
2023-04-04T17:06:33.810Z,112.50
2023-04-04T17:07:33.812Z,112.50
2023-04-04T17:08:33.785Z,106.88
2023-04-04T17:09:33.779Z,106.88
2023-04-04T17:10:33.761Z,106.88
2023-04-04T17:11:33.737Z,101.25
2023-04-04T17:12:33.725Z,101.25
2023-04-04T17:13:33.737Z,101.25
2023-04-04T17:14:33.709Z,95.62
2023-04-04T17:15:33.728Z,95.62
2023-04-04T17:16:33.795Z,95.62
2023-04-04T17:17:33.699Z,90.00
2023-04-04T17:18:33.694Z,90.00
2023-04-04T17:19:33.657Z,90.00
2023-04-04T17:20:34.598Z,84.38